sensor_id;sensor_type;location;lat;lon;timestamp;P1;durP1;ratioP1;P2;durP2;ratioP2
59930;SDS011;45790;51.538;6.736;2023-07-24T00:01:36;3.47;;;2.00;;
59930;SDS011;45790;51.538;6.736;2023-07-24T00:04:02;3.07;;;1.93;;
59930;SDS011;45790;51.538;6.736;2023-07-24T00:06:27;3.55;;;1.70;;
59930;SDS011;45790;51.538;6.736;2023-07-24T00:08:52;3.47;;;1.90;;
59930;SDS011;45790;51.538;6.736;2023-07-24T00:11:17;3.60;;;2.10;;
59930;SDS011;45790;51.538;6.736;2023-07-24T00:13:42;4.50;;;2.22;;
59930;SDS011;45790;51.538;6.736;2023-07-24T00:16:08;3.03;;;1.90;;
59930;SDS011;45790;51.538;6.736;2023-07-24T00:18:33;3.53;;;2.05;;
59930;SDS011;45790;51.538;6.736;2023-07-24T00:20:59;4.80;;;2.17;;
59930;SDS011;45790;51.538;6.736;2023-07-24T00:23:24;3.63;;;2.00;;
59930;SDS011;45790;51.538;6.736;2023-07-24T00:25:49;3.30;;;2.10;;
59930;SDS011;45790;51.538;6.736;2023-07-24T00:28:14;3.58;;;2.33;;
59930;SDS011;45790;51.538;6.736;2023-07-24T00:30:39;5.87;;;2.50;;
59930;SDS011;45790;51.538;6.736;2023-07-24T00:33:05;5.38;;;2.30;;
59930;SDS011;45790;51.538;6.736;2023-07-24T00:35:30;3.45;;;2.28;;
59930;SDS011;45790;51.538;6.736;2023-07-24T00:37:55;4.05;;;2.40;;
59930;SDS011;45790;51.538;6.736;2023-07-24T00:40:21;7.50;;;2.40;;
59930;SDS011;45790;51.538;6.736;2023-07-24T00:42:46;5.97;;;2.40;;
59930;SDS011;45790;51.538;6.736;2023-07-24T00:45:12;5.07;;;2.55;;
59930;SDS011;45790;51.538;6.736;2023-07-24T00:47:37;3.33;;;2.10;;
59930;SDS011;45790;51.538;6.736;2023-07-24T00:50:02;5.00;;;2.30;;
59930;SDS011;45790;51.538;6.736;2023-07-24T00:52:27;3.65;;;2.30;;
59930;SDS011;45790;51.538;6.736;2023-07-24T00:54:53;4.20;;;2.30;;
59930;SDS011;45790;51.538;6.736;2023-07-24T00:57:18;5.40;;;2.33;;
59930;SDS011;45790;51.538;6.736;2023-07-24T00:59:43;4.88;;;2.50;;
59930;SDS011;45790;51.538;6.736;2023-07-24T01:02:09;8.55;;;2.78;;
59930;SDS011;45790;51.538;6.736;2023-07-24T01:04:34;6.07;;;2.60;;
59930;SDS011;45790;51.538;6.736;2023-07-24T01:07:00;4.35;;;2.45;;
59930;SDS011;45790;51.538;6.736;2023-07-24T01:09:25;5.40;;;3.15;;
59930;SDS011;45790;51.538;6.736;2023-07-24T01:11:51;4.85;;;3.00;;
59930;SDS011;45790;51.538;6.736;2023-07-24T01:14:42;7.50;;;3.47;;
59930;SDS011;45790;51.538;6.736;2023-07-24T01:17:10;6.70;;;3.40;;
59930;SDS011;45790;51.538;6.736;2023-07-24T01:19:39;5.85;;;2.97;;
59930;SDS011;45790;51.538;6.736;2023-07-24T01:24:41;5.72;;;3.00;;
59930;SDS011;45790;51.538;6.736;2023-07-24T01:27:18;5.32;;;3.10;;
59930;SDS011;45790;51.538;6.736;2023-07-24T01:29:43;7.95;;;3.30;;
59930;SDS011;45790;51.538;6.736;2023-07-24T01:32:08;10.17;;;3.90;;
59930;SDS011;45790;51.538;6.736;2023-07-24T01:34:33;8.30;;;3.33;;
59930;SDS011;45790;51.538;6.736;2023-07-24T01:36:59;6.37;;;3.30;;
59930;SDS011;45790;51.538;6.736;2023-07-24T01:39:24;9.68;;;3.97;;
59930;SDS011;45790;51.538;6.736;2023-07-24T01:41:49;10.60;;;3.38;;
59930;SDS011;45790;51.538;6.736;2023-07-24T01:44:15;10.02;;;3.90;;
59930;SDS011;45790;51.538;6.736;2023-07-24T01:46:40;6.95;;;3.15;;
59930;SDS011;45790;51.538;6.736;2023-07-24T01:49:05;14.73;;;3.50;;
59930;SDS011;45790;51.538;6.736;2023-07-24T01:51:30;11.87;;;4.10;;
59930;SDS011;45790;51.538;6.736;2023-07-24T01:53:56;12.45;;;3.78;;
59930;SDS011;45790;51.538;6.736;2023-07-24T01:56:21;9.67;;;3.80;;
59930;SDS011;45790;51.538;6.736;2023-07-24T01:58:46;9.30;;;3.77;;
59930;SDS011;45790;51.538;6.736;2023-07-24T02:01:11;7.23;;;3.90;;
59930;SDS011;45790;51.538;6.736;2023-07-24T02:03:36;6.80;;;3.85;;
59930;SDS011;45790;51.538;6.736;2023-07-24T02:06:04;8.75;;;4.15;;
59930;SDS011;45790;51.538;6.736;2023-07-24T02:08:29;12.17;;;4.47;;
59930;SDS011;45790;51.538;6.736;2023-07-24T02:10:54;11.03;;;4.60;;
59930;SDS011;45790;51.538;6.736;2023-07-24T02:13:20;12.97;;;4.40;;
59930;SDS011;45790;51.538;6.736;2023-07-24T02:15:45;9.37;;;4.10;;
59930;SDS011;45790;51.538;6.736;2023-07-24T02:18:10;10.93;;;4.43;;
59930;SDS011;45790;51.538;6.736;2023-07-24T02:20:35;9.13;;;4.03;;
59930;SDS011;45790;51.538;6.736;2023-07-24T02:23:00;10.23;;;5.10;;
59930;SDS011;45790;51.538;6.736;2023-07-24T02:25:26;7.27;;;4.50;;
59930;SDS011;45790;51.538;6.736;2023-07-24T02:27:51;9.40;;;4.17;;
59930;SDS011;45790;51.538;6.736;2023-07-24T02:30:16;10.20;;;4.10;;
59930;SDS011;45790;51.538;6.736;2023-07-24T02:32:41;8.67;;;4.70;;
59930;SDS011;45790;51.538;6.736;2023-07-24T02:35:07;9.07;;;4.70;;
59930;SDS011;45790;51.538;6.736;2023-07-24T02:37:32;9.32;;;4.30;;
59930;SDS011;45790;51.538;6.736;2023-07-24T02:39:57;9.18;;;4.13;;
59930;SDS011;45790;51.538;6.736;2023-07-24T02:42:22;8.57;;;4.13;;
59930;SDS011;45790;51.538;6.736;2023-07-24T02:44:48;8.98;;;3.97;;
59930;SDS011;45790;51.538;6.736;2023-07-24T02:47:13;10.45;;;4.22;;
59930;SDS011;45790;51.538;6.736;2023-07-24T02:49:38;9.33;;;3.93;;
59930;SDS011;45790;51.538;6.736;2023-07-24T02:52:03;10.97;;;4.07;;
59930;SDS011;45790;51.538;6.736;2023-07-24T02:54:29;10.82;;;3.90;;
59930;SDS011;45790;51.538;6.736;2023-07-24T02:56:54;11.53;;;4.70;;
59930;SDS011;45790;51.538;6.736;2023-07-24T02:59:19;8.98;;;3.72;;
59930;SDS011;45790;51.538;6.736;2023-07-24T03:01:44;8.60;;;4.10;;
59930;SDS011;45790;51.538;6.736;2023-07-24T03:04:10;9.73;;;3.90;;
59930;SDS011;45790;51.538;6.736;2023-07-24T03:06:35;10.45;;;4.40;;
59930;SDS011;45790;51.538;6.736;2023-07-24T03:09:00;9.80;;;4.38;;
59930;SDS011;45790;51.538;6.736;2023-07-24T03:11:26;8.83;;;4.30;;
59930;SDS011;45790;51.538;6.736;2023-07-24T03:13:51;7.83;;;4.20;;
59930;SDS011;45790;51.538;6.736;2023-07-24T03:16:16;9.80;;;4.33;;
59930;SDS011;45790;51.538;6.736;2023-07-24T03:18:46;10.93;;;4.25;;
59930;SDS011;45790;51.538;6.736;2023-07-24T03:21:11;10.00;;;4.53;;
59930;SDS011;45790;51.538;6.736;2023-07-24T03:23:36;6.73;;;3.97;;
59930;SDS011;45790;51.538;6.736;2023-07-24T03:26:01;12.17;;;4.70;;
59930;SDS011;45790;51.538;6.736;2023-07-24T03:28:27;11.25;;;3.60;;
59930;SDS011;45790;51.538;6.736;2023-07-24T03:30:52;6.63;;;3.67;;
59930;SDS011;45790;51.538;6.736;2023-07-24T03:33:17;8.10;;;3.50;;
59930;SDS011;45790;51.538;6.736;2023-07-24T03:35:42;10.83;;;4.53;;
59930;SDS011;45790;51.538;6.736;2023-07-24T03:38:08;7.43;;;3.57;;
59930;SDS011;45790;51.538;6.736;2023-07-24T03:40:33;9.57;;;4.10;;
59930;SDS011;45790;51.538;6.736;2023-07-24T03:42:58;12.20;;;4.47;;
59930;SDS011;45790;51.538;6.736;2023-07-24T03:45:23;7.40;;;4.27;;
59930;SDS011;45790;51.538;6.736;2023-07-24T03:47:48;11.10;;;4.60;;
59930;SDS011;45790;51.538;6.736;2023-07-24T03:50:14;12.18;;;4.30;;
59930;SDS011;45790;51.538;6.736;2023-07-24T03:52:39;16.13;;;5.00;;
59930;SDS011;45790;51.538;6.736;2023-07-24T03:55:04;9.90;;;4.53;;
59930;SDS011;45790;51.538;6.736;2023-07-24T03:57:30;9.43;;;4.60;;
59930;SDS011;45790;51.538;6.736;2023-07-24T03:59:55;7.70;;;4.33;;
59930;SDS011;45790;51.538;6.736;2023-07-24T04:02:20;7.03;;;4.22;;
59930;SDS011;45790;51.538;6.736;2023-07-24T04:04:45;8.77;;;4.43;;
59930;SDS011;45790;51.538;6.736;2023-07-24T04:07:10;9.10;;;4.13;;
59930;SDS011;45790;51.538;6.736;2023-07-24T04:09:36;11.77;;;4.83;;
59930;SDS011;45790;51.538;6.736;2023-07-24T04:12:01;9.80;;;4.53;;
59930;SDS011;45790;51.538;6.736;2023-07-24T04:14:26;10.35;;;4.28;;
59930;SDS011;45790;51.538;6.736;2023-07-24T04:16:51;8.87;;;4.10;;
59930;SDS011;45790;51.538;6.736;2023-07-24T04:19:17;8.55;;;4.15;;
59930;SDS011;45790;51.538;6.736;2023-07-24T04:21:42;7.50;;;3.65;;
59930;SDS011;45790;51.538;6.736;2023-07-24T04:24:07;9.53;;;4.07;;
59930;SDS011;45790;51.538;6.736;2023-07-24T04:26:32;9.30;;;3.97;;
59930;SDS011;45790;51.538;6.736;2023-07-24T04:28:58;7.75;;;3.35;;
59930;SDS011;45790;51.538;6.736;2023-07-24T04:31:23;9.37;;;4.37;;
59930;SDS011;45790;51.538;6.736;2023-07-24T04:33:48;7.93;;;3.70;;
59930;SDS011;45790;51.538;6.736;2023-07-24T04:36:13;9.80;;;3.63;;
59930;SDS011;45790;51.538;6.736;2023-07-24T04:38:39;8.25;;;3.63;;
59930;SDS011;45790;51.538;6.736;2023-07-24T04:41:04;7.90;;;3.53;;
59930;SDS011;45790;51.538;6.736;2023-07-24T04:43:29;5.53;;;3.50;;
59930;SDS011;45790;51.538;6.736;2023-07-24T04:45:54;6.55;;;3.35;;
59930;SDS011;45790;51.538;6.736;2023-07-24T04:48:20;6.43;;;3.00;;
59930;SDS011;45790;51.538;6.736;2023-07-24T04:50:45;7.55;;;3.88;;
59930;SDS011;45790;51.538;6.736;2023-07-24T04:53:10;6.40;;;3.80;;
59930;SDS011;45790;51.538;6.736;2023-07-24T04:55:35;5.50;;;3.33;;
59930;SDS011;45790;51.538;6.736;2023-07-24T04:58:00;5.90;;;3.63;;
59930;SDS011;45790;51.538;6.736;2023-07-24T05:00:26;7.20;;;3.90;;
59930;SDS011;45790;51.538;6.736;2023-07-24T05:02:51;8.10;;;3.80;;
59930;SDS011;45790;51.538;6.736;2023-07-24T05:05:16;7.97;;;3.30;;
59930;SDS011;45790;51.538;6.736;2023-07-24T05:07:42;6.00;;;3.75;;
59930;SDS011;45790;51.538;6.736;2023-07-24T05:10:07;8.73;;;3.40;;
59930;SDS011;45790;51.538;6.736;2023-07-24T05:12:32;6.32;;;3.45;;
59930;SDS011;45790;51.538;6.736;2023-07-24T05:14:57;7.83;;;3.40;;
59930;SDS011;45790;51.538;6.736;2023-07-24T05:17:23;6.22;;;3.95;;
59930;SDS011;45790;51.538;6.736;2023-07-24T05:19:48;7.57;;;3.27;;
59930;SDS011;45790;51.538;6.736;2023-07-24T05:22:13;6.67;;;3.53;;
59930;SDS011;45790;51.538;6.736;2023-07-24T05:24:38;11.32;;;3.38;;
59930;SDS011;45790;51.538;6.736;2023-07-24T05:27:04;6.40;;;3.35;;
59930;SDS011;45790;51.538;6.736;2023-07-24T05:29:29;7.40;;;3.22;;
59930;SDS011;45790;51.538;6.736;2023-07-24T05:31:54;6.05;;;3.55;;
59930;SDS011;45790;51.538;6.736;2023-07-24T05:34:20;13.38;;;3.58;;
59930;SDS011;45790;51.538;6.736;2023-07-24T05:36:45;7.33;;;3.20;;
59930;SDS011;45790;51.538;6.736;2023-07-24T05:39:10;7.38;;;3.35;;
59930;SDS011;45790;51.538;6.736;2023-07-24T05:41:35;7.07;;;3.43;;
59930;SDS011;45790;51.538;6.736;2023-07-24T05:44:00;7.97;;;3.70;;
59930;SDS011;45790;51.538;6.736;2023-07-24T05:46:26;6.18;;;3.50;;
59930;SDS011;45790;51.538;6.736;2023-07-24T05:48:51;7.00;;;3.83;;
59930;SDS011;45790;51.538;6.736;2023-07-24T05:51:16;5.77;;;3.30;;
59930;SDS011;45790;51.538;6.736;2023-07-24T05:53:41;5.87;;;3.27;;
59930;SDS011;45790;51.538;6.736;2023-07-24T05:56:06;9.17;;;3.50;;
59930;SDS011;45790;51.538;6.736;2023-07-24T05:58:32;9.85;;;3.58;;
59930;SDS011;45790;51.538;6.736;2023-07-24T06:00:57;6.25;;;3.42;;
59930;SDS011;45790;51.538;6.736;2023-07-24T06:03:23;6.15;;;3.42;;
59930;SDS011;45790;51.538;6.736;2023-07-24T06:05:54;8.00;;;4.60;;
59930;SDS011;45790;51.538;6.736;2023-07-24T06:08:19;5.95;;;3.35;;
59930;SDS011;45790;51.538;6.736;2023-07-24T06:10:48;6.30;;;3.70;;
59930;SDS011;45790;51.538;6.736;2023-07-24T06:13:14;5.75;;;3.50;;
59930;SDS011;45790;51.538;6.736;2023-07-24T06:15:39;6.88;;;3.60;;
59930;SDS011;45790;51.538;6.736;2023-07-24T06:18:04;8.10;;;3.97;;
59930;SDS011;45790;51.538;6.736;2023-07-24T06:20:29;6.90;;;3.63;;
59930;SDS011;45790;51.538;6.736;2023-07-24T06:22:55;7.50;;;4.03;;
59930;SDS011;45790;51.538;6.736;2023-07-24T06:25:20;6.27;;;3.93;;
59930;SDS011;45790;51.538;6.736;2023-07-24T06:27:45;8.50;;;4.30;;
59930;SDS011;45790;51.538;6.736;2023-07-24T06:30:10;5.93;;;3.67;;
59930;SDS011;45790;51.538;6.736;2023-07-24T06:32:35;8.43;;;4.10;;
59930;SDS011;45790;51.538;6.736;2023-07-24T06:35:01;8.13;;;4.10;;
59930;SDS011;45790;51.538;6.736;2023-07-24T06:37:26;7.60;;;3.70;;
59930;SDS011;45790;51.538;6.736;2023-07-24T06:39:51;6.40;;;3.20;;
59930;SDS011;45790;51.538;6.736;2023-07-24T06:42:16;3.88;;;2.42;;
59930;SDS011;45790;51.538;6.736;2023-07-24T06:44:41;3.33;;;2.00;;
59930;SDS011;45790;51.538;6.736;2023-07-24T06:47:07;2.40;;;1.30;;
59930;SDS011;45790;51.538;6.736;2023-07-24T06:49:32;2.57;;;1.40;;
59930;SDS011;45790;51.538;6.736;2023-07-24T06:51:57;3.27;;;1.40;;
59930;SDS011;45790;51.538;6.736;2023-07-24T06:54:22;6.80;;;1.30;;
59930;SDS011;45790;51.538;6.736;2023-07-24T06:56:47;1.65;;;1.02;;
59930;SDS011;45790;51.538;6.736;2023-07-24T06:59:13;1.90;;;1.10;;
59930;SDS011;45790;51.538;6.736;2023-07-24T07:01:38;2.67;;;1.37;;
59930;SDS011;45790;51.538;6.736;2023-07-24T07:04:03;3.40;;;1.13;;
59930;SDS011;45790;51.538;6.736;2023-07-24T07:06:28;4.80;;;1.20;;
59930;SDS011;45790;51.538;6.736;2023-07-24T07:08:53;1.77;;;0.90;;
59930;SDS011;45790;51.538;6.736;2023-07-24T07:11:19;1.30;;;1.00;;
59930;SDS011;45790;51.538;6.736;2023-07-24T07:13:44;2.70;;;1.17;;
59930;SDS011;45790;51.538;6.736;2023-07-24T07:16:09;1.93;;;0.93;;
59930;SDS011;45790;51.538;6.736;2023-07-24T07:18:34;4.30;;;1.20;;
59930;SDS011;45790;51.538;6.736;2023-07-24T07:21:00;2.78;;;1.20;;
59930;SDS011;45790;51.538;6.736;2023-07-24T07:23:25;1.63;;;1.10;;
59930;SDS011;45790;51.538;6.736;2023-07-24T07:25:50;2.00;;;1.13;;
59930;SDS011;45790;51.538;6.736;2023-07-24T07:28:16;4.13;;;1.20;;
59930;SDS011;45790;51.538;6.736;2023-07-24T07:30:41;1.98;;;1.30;;
59930;SDS011;45790;51.538;6.736;2023-07-24T07:33:07;2.38;;;1.30;;
59930;SDS011;45790;51.538;6.736;2023-07-24T07:35:32;3.63;;;1.50;;
59930;SDS011;45790;51.538;6.736;2023-07-24T07:37:58;2.30;;;1.40;;
59930;SDS011;45790;51.538;6.736;2023-07-24T07:40:23;1.90;;;1.33;;
59930;SDS011;45790;51.538;6.736;2023-07-24T07:42:49;2.40;;;1.40;;
59930;SDS011;45790;51.538;6.736;2023-07-24T07:45:14;2.15;;;1.45;;
59930;SDS011;45790;51.538;6.736;2023-07-24T07:47:39;3.85;;;1.63;;
59930;SDS011;45790;51.538;6.736;2023-07-24T07:50:05;3.00;;;1.67;;
59930;SDS011;45790;51.538;6.736;2023-07-24T07:52:30;2.70;;;1.58;;
59930;SDS011;45790;51.538;6.736;2023-07-24T07:54:55;2.27;;;1.47;;
59930;SDS011;45790;51.538;6.736;2023-07-24T07:57:20;4.93;;;1.30;;
59930;SDS011;45790;51.538;6.736;2023-07-24T07:59:45;2.53;;;1.43;;
59930;SDS011;45790;51.538;6.736;2023-07-24T08:02:11;2.37;;;1.47;;
59930;SDS011;45790;51.538;6.736;2023-07-24T08:04:36;4.80;;;1.60;;
59930;SDS011;45790;51.538;6.736;2023-07-24T08:07:01;2.70;;;1.48;;
59930;SDS011;45790;51.538;6.736;2023-07-24T08:09:26;3.13;;;1.60;;
59930;SDS011;45790;51.538;6.736;2023-07-24T08:11:52;2.67;;;1.42;;
59930;SDS011;45790;51.538;6.736;2023-07-24T08:14:17;3.30;;;1.20;;
59930;SDS011;45790;51.538;6.736;2023-07-24T08:16:42;5.88;;;1.90;;
59930;SDS011;45790;51.538;6.736;2023-07-24T08:19:08;2.25;;;1.42;;
59930;SDS011;45790;51.538;6.736;2023-07-24T08:21:33;1.80;;;1.20;;
59930;SDS011;45790;51.538;6.736;2023-07-24T08:23:58;2.07;;;1.40;;
59930;SDS011;45790;51.538;6.736;2023-07-24T08:26:24;1.63;;;1.10;;
59930;SDS011;45790;51.538;6.736;2023-07-24T08:28:51;2.42;;;1.30;;
59930;SDS011;45790;51.538;6.736;2023-07-24T08:31:16;2.70;;;1.25;;
59930;SDS011;45790;51.538;6.736;2023-07-24T08:33:41;1.90;;;1.10;;
59930;SDS011;45790;51.538;6.736;2023-07-24T08:36:07;3.90;;;1.30;;
59930;SDS011;45790;51.538;6.736;2023-07-24T08:38:33;1.95;;;0.90;;
59930;SDS011;45790;51.538;6.736;2023-07-24T08:41:08;1.48;;;0.88;;
59930;SDS011;45790;51.538;6.736;2023-07-24T08:43:34;1.20;;;0.73;;
59930;SDS011;45790;51.538;6.736;2023-07-24T08:46:00;1.92;;;0.95;;
59930;SDS011;45790;51.538;6.736;2023-07-24T08:48:26;1.90;;;1.00;;
59930;SDS011;45790;51.538;6.736;2023-07-24T08:50:52;1.98;;;0.80;;
59930;SDS011;45790;51.538;6.736;2023-07-24T08:53:18;3.10;;;1.13;;
59930;SDS011;45790;51.538;6.736;2023-07-24T08:55:44;1.35;;;0.93;;
59930;SDS011;45790;51.538;6.736;2023-07-24T08:58:10;3.08;;;1.40;;
59930;SDS011;45790;51.538;6.736;2023-07-24T09:00:35;1.50;;;1.03;;
59930;SDS011;45790;51.538;6.736;2023-07-24T09:03:00;1.77;;;1.27;;
59930;SDS011;45790;51.538;6.736;2023-07-24T09:05:26;1.63;;;1.10;;
59930;SDS011;45790;51.538;6.736;2023-07-24T09:07:51;3.47;;;1.20;;
59930;SDS011;45790;51.538;6.736;2023-07-24T09:10:19;1.52;;;0.90;;
59930;SDS011;45790;51.538;6.736;2023-07-24T09:12:48;4.18;;;1.25;;
59930;SDS011;45790;51.538;6.736;2023-07-24T09:15:14;2.22;;;1.35;;
59930;SDS011;45790;51.538;6.736;2023-07-24T09:17:47;2.27;;;1.27;;
59930;SDS011;45790;51.538;6.736;2023-07-24T09:20:12;2.75;;;1.23;;
59930;SDS011;45790;51.538;6.736;2023-07-24T09:22:37;1.85;;;1.15;;
59930;SDS011;45790;51.538;6.736;2023-07-24T09:25:12;3.42;;;1.33;;
59930;SDS011;45790;51.538;6.736;2023-07-24T09:27:37;2.03;;;1.27;;
59930;SDS011;45790;51.538;6.736;2023-07-24T09:30:02;1.17;;;0.98;;
59930;SDS011;45790;51.538;6.736;2023-07-24T09:32:36;3.67;;;1.20;;
59930;SDS011;45790;51.538;6.736;2023-07-24T09:35:03;1.77;;;1.10;;
59930;SDS011;45790;51.538;6.736;2023-07-24T09:37:33;2.75;;;1.13;;
59930;SDS011;45790;51.538;6.736;2023-07-24T09:39:58;1.90;;;1.05;;
59930;SDS011;45790;51.538;6.736;2023-07-24T09:44:54;1.55;;;1.00;;
59930;SDS011;45790;51.538;6.736;2023-07-24T09:47:19;3.08;;;1.10;;
59930;SDS011;45790;51.538;6.736;2023-07-24T09:49:45;1.80;;;1.13;;
59930;SDS011;45790;51.538;6.736;2023-07-24T09:52:10;1.52;;;1.08;;
59930;SDS011;45790;51.538;6.736;2023-07-24T09:54:37;2.45;;;1.00;;
59930;SDS011;45790;51.538;6.736;2023-07-24T09:57:10;2.35;;;1.10;;
59930;SDS011;45790;51.538;6.736;2023-07-24T09:59:36;2.03;;;1.10;;
59930;SDS011;45790;51.538;6.736;2023-07-24T10:02:01;1.48;;;0.90;;
59930;SDS011;45790;51.538;6.736;2023-07-24T10:04:27;1.42;;;0.85;;
59930;SDS011;45790;51.538;6.736;2023-07-24T10:06:52;1.33;;;0.90;;
59930;SDS011;45790;51.538;6.736;2023-07-24T10:09:18;1.70;;;1.00;;
59930;SDS011;45790;51.538;6.736;2023-07-24T10:11:46;3.28;;;1.20;;
59930;SDS011;45790;51.538;6.736;2023-07-24T10:14:11;1.52;;;0.90;;
59930;SDS011;45790;51.538;6.736;2023-07-24T10:16:37;1.83;;;1.10;;
59930;SDS011;45790;51.538;6.736;2023-07-24T10:19:12;2.28;;;1.15;;
59930;SDS011;45790;51.538;6.736;2023-07-24T10:21:37;1.27;;;0.90;;
59930;SDS011;45790;51.538;6.736;2023-07-24T10:24:02;2.88;;;1.08;;
59930;SDS011;45790;51.538;6.736;2023-07-24T10:26:28;2.85;;;1.05;;
59930;SDS011;45790;51.538;6.736;2023-07-24T10:28:53;2.07;;;1.17;;
59930;SDS011;45790;51.538;6.736;2023-07-24T10:31:20;1.23;;;1.00;;
59930;SDS011;45790;51.538;6.736;2023-07-24T10:33:45;1.70;;;1.00;;
59930;SDS011;45790;51.538;6.736;2023-07-24T10:36:11;3.42;;;1.42;;
59930;SDS011;45790;51.538;6.736;2023-07-24T10:38:40;2.22;;;0.93;;
59930;SDS011;45790;51.538;6.736;2023-07-24T10:41:05;1.55;;;1.05;;
59930;SDS011;45790;51.538;6.736;2023-07-24T10:46:05;1.85;;;1.00;;
59930;SDS011;45790;51.538;6.736;2023-07-24T10:48:30;2.25;;;1.50;;
59930;SDS011;45790;51.538;6.736;2023-07-24T10:50:56;1.63;;;1.15;;
59930;SDS011;45790;51.538;6.736;2023-07-24T10:53:22;2.20;;;1.03;;
59930;SDS011;45790;51.538;6.736;2023-07-24T10:55:47;1.38;;;0.98;;
59930;SDS011;45790;51.538;6.736;2023-07-24T10:58:13;1.38;;;1.00;;
59930;SDS011;45790;51.538;6.736;2023-07-24T11:00:40;3.83;;;1.02;;
59930;SDS011;45790;51.538;6.736;2023-07-24T11:03:09;2.63;;;1.20;;
59930;SDS011;45790;51.538;6.736;2023-07-24T11:05:38;1.88;;;1.30;;
59930;SDS011;45790;51.538;6.736;2023-07-24T11:08:08;4.18;;;1.33;;
59930;SDS011;45790;51.538;6.736;2023-07-24T11:10:33;2.80;;;1.35;;
59930;SDS011;45790;51.538;6.736;2023-07-24T11:12:58;1.43;;;1.17;;
59930;SDS011;45790;51.538;6.736;2023-07-24T11:15:24;2.77;;;1.33;;
59930;SDS011;45790;51.538;6.736;2023-07-24T11:17:53;1.90;;;1.10;;
59930;SDS011;45790;51.538;6.736;2023-07-24T11:20:18;2.97;;;1.40;;
59930;SDS011;45790;51.538;6.736;2023-07-24T11:22:43;5.07;;;1.80;;
59930;SDS011;45790;51.538;6.736;2023-07-24T11:25:09;2.55;;;1.48;;
59930;SDS011;45790;51.538;6.736;2023-07-24T11:27:41;2.20;;;1.40;;
59930;SDS011;45790;51.538;6.736;2023-07-24T11:30:09;4.05;;;1.25;;
59930;SDS011;45790;51.538;6.736;2023-07-24T11:32:34;3.70;;;1.58;;
59930;SDS011;45790;51.538;6.736;2023-07-24T11:34:59;3.87;;;1.60;;
59930;SDS011;45790;51.538;6.736;2023-07-24T11:37:24;2.88;;;1.70;;
59930;SDS011;45790;51.538;6.736;2023-07-24T11:39:59;3.60;;;1.67;;
59930;SDS011;45790;51.538;6.736;2023-07-24T11:42:33;3.65;;;1.95;;
59930;SDS011;45790;51.538;6.736;2023-07-24T11:45:00;2.85;;;1.73;;
59930;SDS011;45790;51.538;6.736;2023-07-24T11:47:26;3.05;;;1.60;;
59930;SDS011;45790;51.538;6.736;2023-07-24T11:49:58;2.35;;;1.60;;
59930;SDS011;45790;51.538;6.736;2023-07-24T11:52:23;2.78;;;1.70;;
59930;SDS011;45790;51.538;6.736;2023-07-24T11:54:55;4.33;;;1.90;;
59930;SDS011;45790;51.538;6.736;2023-07-24T11:57:22;3.65;;;2.00;;
59930;SDS011;45790;51.538;6.736;2023-07-24T11:59:48;4.10;;;1.73;;
59930;SDS011;45790;51.538;6.736;2023-07-24T12:02:13;4.13;;;2.20;;
59930;SDS011;45790;51.538;6.736;2023-07-24T12:04:38;4.45;;;2.17;;
59930;SDS011;45790;51.538;6.736;2023-07-24T12:07:07;3.33;;;1.90;;
59930;SDS011;45790;51.538;6.736;2023-07-24T12:09:32;8.30;;;1.93;;
59930;SDS011;45790;51.538;6.736;2023-07-24T12:11:58;3.77;;;2.00;;
59930;SDS011;45790;51.538;6.736;2023-07-24T12:14:23;3.35;;;1.80;;
59930;SDS011;45790;51.538;6.736;2023-07-24T12:16:48;5.40;;;1.90;;
59930;SDS011;45790;51.538;6.736;2023-07-24T12:19:13;4.07;;;1.80;;
59930;SDS011;45790;51.538;6.736;2023-07-24T12:21:39;3.10;;;1.77;;
59930;SDS011;45790;51.538;6.736;2023-07-24T12:24:04;3.97;;;1.97;;
59930;SDS011;45790;51.538;6.736;2023-07-24T12:26:29;3.95;;;1.85;;
59930;SDS011;45790;51.538;6.736;2023-07-24T12:28:55;3.50;;;1.85;;
59930;SDS011;45790;51.538;6.736;2023-07-24T12:31:20;3.17;;;1.50;;
59930;SDS011;45790;51.538;6.736;2023-07-24T12:33:45;2.30;;;1.33;;
59930;SDS011;45790;51.538;6.736;2023-07-24T12:36:10;6.13;;;1.40;;
59930;SDS011;45790;51.538;6.736;2023-07-24T12:38:35;1.80;;;1.30;;
59930;SDS011;45790;51.538;6.736;2023-07-24T12:41:00;3.90;;;1.70;;
59930;SDS011;45790;51.538;6.736;2023-07-24T12:43:26;2.97;;;1.53;;
59930;SDS011;45790;51.538;6.736;2023-07-24T12:45:51;3.37;;;1.40;;
59930;SDS011;45790;51.538;6.736;2023-07-24T12:48:16;2.13;;;1.40;;
59930;SDS011;45790;51.538;6.736;2023-07-24T12:50:42;2.60;;;1.50;;
59930;SDS011;45790;51.538;6.736;2023-07-24T12:53:07;4.25;;;1.60;;
59930;SDS011;45790;51.538;6.736;2023-07-24T12:55:33;1.48;;;1.17;;
59930;SDS011;45790;51.538;6.736;2023-07-24T12:57:58;2.43;;;1.53;;
59930;SDS011;45790;51.538;6.736;2023-07-24T13:00:23;3.03;;;1.50;;
59930;SDS011;45790;51.538;6.736;2023-07-24T13:02:48;2.78;;;1.70;;
59930;SDS011;45790;51.538;6.736;2023-07-24T13:05:14;2.88;;;1.42;;
59930;SDS011;45790;51.538;6.736;2023-07-24T13:07:39;2.37;;;1.40;;
59930;SDS011;45790;51.538;6.736;2023-07-24T13:10:04;5.10;;;1.35;;
59930;SDS011;45790;51.538;6.736;2023-07-24T13:12:30;3.50;;;1.30;;
59930;SDS011;45790;51.538;6.736;2023-07-24T13:14:56;3.38;;;1.73;;
59930;SDS011;45790;51.538;6.736;2023-07-24T13:17:21;4.87;;;2.30;;
59930;SDS011;45790;51.538;6.736;2023-07-24T13:19:47;2.30;;;1.50;;
59930;SDS011;45790;51.538;6.736;2023-07-24T13:22:12;2.77;;;1.53;;
59930;SDS011;45790;51.538;6.736;2023-07-24T13:24:37;2.33;;;1.20;;
59930;SDS011;45790;51.538;6.736;2023-07-24T13:27:02;2.27;;;1.40;;
59930;SDS011;45790;51.538;6.736;2023-07-24T13:29:29;2.75;;;1.40;;
59930;SDS011;45790;51.538;6.736;2023-07-24T13:31:54;5.50;;;1.67;;
59930;SDS011;45790;51.538;6.736;2023-07-24T13:34:19;12.43;;;2.57;;
59930;SDS011;45790;51.538;6.736;2023-07-24T13:36:45;4.30;;;1.55;;
59930;SDS011;45790;51.538;6.736;2023-07-24T13:39:11;2.25;;;1.40;;
59930;SDS011;45790;51.538;6.736;2023-07-24T13:41:36;1.83;;;1.40;;
59930;SDS011;45790;51.538;6.736;2023-07-24T13:44:03;2.55;;;1.30;;
59930;SDS011;45790;51.538;6.736;2023-07-24T13:46:28;3.80;;;1.38;;
59930;SDS011;45790;51.538;6.736;2023-07-24T13:48:53;3.73;;;1.77;;
59930;SDS011;45790;51.538;6.736;2023-07-24T13:51:19;1.83;;;1.27;;
59930;SDS011;45790;51.538;6.736;2023-07-24T13:53:44;2.55;;;1.50;;
59930;SDS011;45790;51.538;6.736;2023-07-24T13:56:12;4.93;;;1.50;;
59930;SDS011;45790;51.538;6.736;2023-07-24T13:58:37;2.67;;;1.50;;
59930;SDS011;45790;51.538;6.736;2023-07-24T14:01:02;2.00;;;1.30;;
59930;SDS011;45790;51.538;6.736;2023-07-24T14:03:28;1.92;;;1.27;;
59930;SDS011;45790;51.538;6.736;2023-07-24T14:05:54;2.70;;;1.40;;
59930;SDS011;45790;51.538;6.736;2023-07-24T14:08:19;2.00;;;1.35;;
59930;SDS011;45790;51.538;6.736;2023-07-24T14:10:44;2.53;;;1.57;;
59930;SDS011;45790;51.538;6.736;2023-07-24T14:13:09;2.33;;;1.37;;
59930;SDS011;45790;51.538;6.736;2023-07-24T14:15:35;3.97;;;1.52;;
59930;SDS011;45790;51.538;6.736;2023-07-24T14:18:00;2.08;;;1.30;;
59930;SDS011;45790;51.538;6.736;2023-07-24T14:20:25;7.77;;;2.20;;
59930;SDS011;45790;51.538;6.736;2023-07-24T14:22:51;2.40;;;1.50;;
59930;SDS011;45790;51.538;6.736;2023-07-24T14:25:16;4.47;;;1.37;;
59930;SDS011;45790;51.538;6.736;2023-07-24T14:27:41;3.17;;;1.30;;
59930;SDS011;45790;51.538;6.736;2023-07-24T14:30:08;3.53;;;1.63;;
59930;SDS011;45790;51.538;6.736;2023-07-24T14:32:33;2.25;;;1.55;;
59930;SDS011;45790;51.538;6.736;2023-07-24T14:34:59;2.92;;;1.50;;
59930;SDS011;45790;51.538;6.736;2023-07-24T14:37:25;2.30;;;1.50;;
59930;SDS011;45790;51.538;6.736;2023-07-24T14:39:50;3.43;;;1.60;;
59930;SDS011;45790;51.538;6.736;2023-07-24T14:42:15;2.57;;;1.57;;
59930;SDS011;45790;51.538;6.736;2023-07-24T14:44:40;3.00;;;1.70;;